Pagina principale
METAR-TAF:

METAR-TAF

Aeroporti :

Aeroporto Internazionale di Baghdad

Baghdad, Iraq

latitudine: 33-15-45N, longitudine: 44-14-04E, altezza: 35 m

Osservazione

Il bollettino è stato emesso 52 minuti fa, alle 11:00 UTC
Vento 3 kt da est, variando fra nord-est e est/sud-est
Temperature 35°C
Umidità 22%
Pressione 1011 hPa
Visibilità 10 km o più
Nuvoloso ad un'altezza di 3300 ft

METAR: ORBI 171100Z 08003KT 050V120 9999 BKN033 35/10 Q1011

Ora: 14:52 (11:52 UTC)

Previsione

Il bollettino è stato emesso 1 ora e 52 minuti fa, alle 10:00 UTC
Previsione valida dal 17 alle 12 UTC al 18 alle 12 UTC
Vento 5 kt da est
Visibilità: 7000 m
Nuvoloso ad un'altezza di 3000 ft

TAF: ORBI 171000Z 1712/1812 08005KT 7000 BKN030

Osservazioni e previsioni meteorologiche di più di 4000 aeroporti (messaggi METAR e TAF).

Le stazioni disponibili sono rappresentate dai dischi gialli e rossi sulla carta.

Puntare il mouse per vedere il nome della stazione.

Clicca sopra per visualizzare le osservazioni e previsioni meteorologiche.

Per cambiare la mappa : fare clic sui pulsanti verdi con una croce nera per ingrandire, il pulsante verde con un trattino per diminuire, o sulla freccia verde per le mappe adiacenti.


METAR-TAF: